createdAt,value
2023-02-03T00:00:20.079Z,4.32
2023-02-03T00:03:05.589Z,3.60
2023-02-03T00:05:51.221Z,4.30
2023-02-03T00:08:38.524Z,5.35
2023-02-03T00:11:30.830Z,4.15
2023-02-03T00:14:17.243Z,5.28
2023-02-03T00:17:02.677Z,4.13
2023-02-03T00:19:48.149Z,4.13
2023-02-03T00:22:33.476Z,5.13
2023-02-03T00:25:18.974Z,5.32
2023-02-03T00:28:05.359Z,4.47
2023-02-03T00:30:54.127Z,4.25
2023-02-03T00:33:39.695Z,4.63
2023-02-03T00:36:26.945Z,3.80
2023-02-03T00:39:12.545Z,4.70
2023-02-03T00:41:57.899Z,4.38
2023-02-03T00:44:43.305Z,4.07
2023-02-03T00:47:28.760Z,5.05
2023-02-03T00:50:15.493Z,4.97
2023-02-03T00:53:00.891Z,4.05
2023-02-03T00:55:46.948Z,3.80
2023-02-03T00:58:32.245Z,4.85
2023-02-03T01:01:22.502Z,3.88
2023-02-03T01:04:08.900Z,4.65
2023-02-03T01:06:58.222Z,4.57
2023-02-03T01:09:43.749Z,3.90
2023-02-03T01:12:33.597Z,4.53
2023-02-03T01:15:19.052Z,4.40
2023-02-03T01:18:04.560Z,3.97
2023-02-03T01:20:50.176Z,4.38
2023-02-03T01:23:37.095Z,4.55
2023-02-03T01:26:24.910Z,4.00
2023-02-03T01:29:13.211Z,3.92
2023-02-03T01:32:03.992Z,3.85
2023-02-03T01:34:49.558Z,3.80
2023-02-03T01:37:35.008Z,3.83
2023-02-03T01:40:22.945Z,4.18
2023-02-03T01:43:11.682Z,3.72
2023-02-03T01:45:58.334Z,3.58
2023-02-03T01:48:44.474Z,3.90
2023-02-03T01:51:30.815Z,3.72
2023-02-03T01:54:25.214Z,3.17
2023-02-03T01:57:17.785Z,3.58
2023-02-03T02:00:05.435Z,3.53
2023-02-03T02:03:00.792Z,3.10
2023-02-03T02:06:03.076Z,3.47
2023-02-03T02:08:52.208Z,3.83
2023-02-03T02:11:37.611Z,3.13
2023-02-03T02:14:22.905Z,2.70
2023-02-03T02:17:25.770Z,2.78
2023-02-03T02:20:37.355Z,2.50
2023-02-03T02:23:59.795Z,4.20
2023-02-03T02:27:01.177Z,3.22
2023-02-03T02:30:17.220Z,3.08
2023-02-03T02:36:45.824Z,3.05
2023-02-03T02:39:43.840Z,3.13
2023-02-03T02:42:40.795Z,3.85
2023-02-03T02:45:32.372Z,3.33
2023-02-03T02:48:29.948Z,3.40
2023-02-03T02:51:16.740Z,3.67
2023-02-03T02:54:06.290Z,3.58
2023-02-03T02:57:01.664Z,3.28
2023-02-03T02:59:51.242Z,3.75
2023-02-03T03:02:37.304Z,3.28
2023-02-03T03:05:24.044Z,2.65
2023-02-03T03:08:12.174Z,3.28
2023-02-03T03:11:00.693Z,4.82
2023-02-03T03:13:51.026Z,3.33
2023-02-03T03:16:42.228Z,3.30
2023-02-03T03:19:34.707Z,3.08
2023-02-03T03:22:27.139Z,3.10
2023-02-03T03:25:18.997Z,2.97
2023-02-03T03:28:11.799Z,3.53
2023-02-03T03:30:58.002Z,3.58
2023-02-03T03:33:44.406Z,3.42
2023-02-03T03:36:44.190Z,3.13
2023-02-03T03:39:41.661Z,3.30
2023-02-03T03:42:36.552Z,3.50
2023-02-03T03:45:32.272Z,2.83
2023-02-03T03:48:25.835Z,2.83
2023-02-03T03:51:33.525Z,2.75
2023-02-03T03:54:22.104Z,2.90
2023-02-03T03:57:18.201Z,4.10
2023-02-03T04:00:09.555Z,2.85
2023-02-03T04:03:08.448Z,3.22
2023-02-03T04:05:54.169Z,3.13
2023-02-03T04:08:42.626Z,2.92
2023-02-03T04:11:46.373Z,2.60
2023-02-03T04:14:38.705Z,3.40
2023-02-03T04:17:24.696Z,3.10
2023-02-03T04:20:10.545Z,3.53
2023-02-03T04:22:56.131Z,3.97
2023-02-03T04:25:41.617Z,2.83
2023-02-03T04:28:27.153Z,2.92
2023-02-03T04:31:12.928Z,3.13
2023-02-03T04:33:58.224Z,2.70
2023-02-03T04:36:43.912Z,3.70
2023-02-03T04:39:29.213Z,2.90
2023-02-03T04:42:14.744Z,3.33
2023-02-03T04:45:00.253Z,2.78
2023-02-03T04:47:45.793Z,3.08
2023-02-03T04:50:34.655Z,2.50
2023-02-03T04:53:25.569Z,2.90
2023-02-03T04:56:11.421Z,3.28
2023-02-03T04:58:56.829Z,3.05
2023-02-03T05:01:42.403Z,2.55
2023-02-03T05:04:38.132Z,3.25
2023-02-03T05:07:25.629Z,3.42
2023-02-03T05:10:11.183Z,3.67
2023-02-03T05:12:56.690Z,3.25
2023-02-03T05:15:42.235Z,3.33
2023-02-03T05:18:27.547Z,3.00
2023-02-03T05:21:13.191Z,3.10
2023-02-03T05:23:58.548Z,3.33
2023-02-03T05:26:44.018Z,3.50
2023-02-03T05:29:29.332Z,3.70
2023-02-03T05:32:14.855Z,3.88
2023-02-03T05:35:00.530Z,3.05
2023-02-03T05:37:46.183Z,3.20
2023-02-03T05:40:50.257Z,3.40
2023-02-03T05:43:38.279Z,3.03
2023-02-03T05:46:26.929Z,3.25
2023-02-03T05:49:12.267Z,3.45
2023-02-03T05:52:00.712Z,3.20
2023-02-03T05:54:46.548Z,3.40
2023-02-03T05:57:32.505Z,3.47
2023-02-03T06:00:18.653Z,2.75
2023-02-03T06:03:04.769Z,2.88
2023-02-03T06:05:50.424Z,3.17
2023-02-03T06:08:35.668Z,2.70
2023-02-03T06:11:27.173Z,3.13
2023-02-03T06:14:14.492Z,3.05
2023-02-03T06:17:00.601Z,3.17
2023-02-03T06:19:49.270Z,3.08
2023-02-03T06:22:35.827Z,2.55
2023-02-03T06:25:28.033Z,2.42
2023-02-03T06:28:13.389Z,3.10
2023-02-03T06:30:59.761Z,3.33
2023-02-03T06:33:45.461Z,2.97
2023-02-03T06:36:31.304Z,2.75
2023-02-03T06:39:16.554Z,3.13
2023-02-03T06:42:02.665Z,3.47
2023-02-03T06:44:51.705Z,3.35
2023-02-03T06:47:45.683Z,3.33
2023-02-03T06:50:31.112Z,2.85
2023-02-03T06:53:16.363Z,4.78
2023-02-03T06:56:03.419Z,4.13
2023-02-03T06:58:48.777Z,2.67
2023-02-03T07:01:34.436Z,3.67
2023-02-03T07:04:22.957Z,2.75
2023-02-03T07:07:12.737Z,3.95
2023-02-03T07:09:57.972Z,3.15
2023-02-03T07:12:44.377Z,4.15
2023-02-03T07:15:29.795Z,3.88
2023-02-03T07:18:30.892Z,3.53
2023-02-03T07:21:21.455Z,3.92
2023-02-03T07:24:06.818Z,3.30
2023-02-03T07:26:53.252Z,3.88
2023-02-03T07:29:41.189Z,3.70
2023-02-03T07:32:26.323Z,3.30
2023-02-03T07:35:11.939Z,3.42
2023-02-03T07:37:57.528Z,3.45
2023-02-03T07:40:42.851Z,3.55
2023-02-03T07:43:28.612Z,3.50
2023-02-03T07:46:14.065Z,3.28
2023-02-03T07:48:59.392Z,3.22
2023-02-03T07:51:50.759Z,3.67
2023-02-03T07:54:39.458Z,4.00
2023-02-03T07:57:28.488Z,3.22
2023-02-03T08:00:16.473Z,4.32
2023-02-03T08:03:05.044Z,3.42
2023-02-03T08:05:51.113Z,3.88
2023-02-03T08:08:37.460Z,3.63
2023-02-03T08:11:24.509Z,3.00
2023-02-03T08:14:10.005Z,3.75
2023-02-03T08:16:55.500Z,4.57
2023-02-03T08:19:41.155Z,3.50
2023-02-03T08:22:26.771Z,3.50
2023-02-03T08:25:14.997Z,4.15
2023-02-03T08:28:00.660Z,3.95
2023-02-03T08:30:48.895Z,3.80
2023-02-03T08:33:34.224Z,3.33
2023-02-03T08:36:19.479Z,4.00
2023-02-03T08:39:06.320Z,3.17
2023-02-03T08:41:51.588Z,3.25
2023-02-03T08:44:39.158Z,3.75
2023-02-03T08:47:25.263Z,3.15
2023-02-03T08:50:11.039Z,3.47
2023-02-03T08:52:56.782Z,2.60
2023-02-03T08:55:42.236Z,3.65
2023-02-03T08:58:27.763Z,3.22
2023-02-03T09:01:15.218Z,3.15
2023-02-03T09:04:04.366Z,4.90
2023-02-03T09:06:50.745Z,3.33
2023-02-03T09:09:39.446Z,3.50
2023-02-03T09:12:25.052Z,3.25
2023-02-03T09:15:12.950Z,3.88
2023-02-03T09:17:58.596Z,3.15
2023-02-03T09:20:44.263Z,3.63
2023-02-03T09:23:29.795Z,4.18
2023-02-03T09:26:17.173Z,3.67
2023-02-03T09:29:02.493Z,4.28
2023-02-03T09:31:53.026Z,4.43
2023-02-03T09:34:39.928Z,3.85
2023-02-03T09:37:25.541Z,3.47
2023-02-03T09:40:22.210Z,3.72
2023-02-03T09:43:18.027Z,3.03
2023-02-03T09:46:22.663Z,3.47
2023-02-03T09:49:21.337Z,3.78
2023-02-03T09:52:14.757Z,3.78
2023-02-03T09:55:20.422Z,3.80
2023-02-03T09:58:07.122Z,3.25
2023-02-03T10:01:06.327Z,3.58
2023-02-03T10:04:09.816Z,2.88
2023-02-03T10:07:25.620Z,2.72
2023-02-03T10:10:13.666Z,3.05
2023-02-03T10:13:31.293Z,3.60
2023-02-03T10:16:44.893Z,2.55
2023-02-03T10:19:46.094Z,2.33
2023-02-03T10:22:35.645Z,2.50
2023-02-03T10:25:33.646Z,2.60
2023-02-03T10:28:24.947Z,2.80
2023-02-03T10:31:19.855Z,2.63
2023-02-03T10:34:13.486Z,2.90
2023-02-03T10:37:11.566Z,2.33
2023-02-03T10:39:59.475Z,2.97
2023-02-03T10:43:06.823Z,2.92
2023-02-03T10:45:52.337Z,2.38
2023-02-03T10:48:37.571Z,2.85
2023-02-03T10:51:24.868Z,2.55
2023-02-03T10:54:33.813Z,2.80
2023-02-03T10:57:19.300Z,2.88
2023-02-03T11:00:24.139Z,2.65
2023-02-03T11:03:24.754Z,2.43
2023-02-03T11:06:14.195Z,2.65
2023-02-03T11:09:00.463Z,2.70
2023-02-03T11:11:45.757Z,2.25
2023-02-03T11:14:37.793Z,2.38
2023-02-03T11:17:29.711Z,2.13
2023-02-03T11:20:17.000Z,2.60
2023-02-03T11:23:04.627Z,2.75
2023-02-03T11:25:52.455Z,2.83
2023-02-03T11:28:43.333Z,2.47
2023-02-03T11:31:32.515Z,2.28
2023-02-03T11:34:31.292Z,2.92
2023-02-03T11:37:34.858Z,2.85
2023-02-03T11:40:29.692Z,2.92
2023-02-03T11:43:18.040Z,2.80
2023-02-03T11:46:10.087Z,2.50
2023-02-03T11:49:21.439Z,2.88
2023-02-03T11:52:38.206Z,3.05
2023-02-03T11:55:44.275Z,2.45
2023-02-03T11:58:44.661Z,3.05
2023-02-03T12:01:54.587Z,2.83
2023-02-03T12:05:00.938Z,2.92
2023-02-03T12:08:15.706Z,2.53
2023-02-03T12:11:32.405Z,2.72
2023-02-03T12:14:50.609Z,2.75
2023-02-03T12:17:45.867Z,3.08
2023-02-03T12:20:52.933Z,2.60
2023-02-03T12:23:55.713Z,2.50
2023-02-03T12:27:05.305Z,2.42
2023-02-03T12:30:10.149Z,2.58
2023-02-03T12:33:00.224Z,2.88
2023-02-03T12:36:00.642Z,2.30
2023-02-03T12:39:09.331Z,2.60
2023-02-03T12:42:04.746Z,2.97
2023-02-03T12:45:02.264Z,2.47
2023-02-03T12:47:55.585Z,2.65
2023-02-03T12:51:00.699Z,2.90
2023-02-03T12:53:55.416Z,2.40
2023-02-03T12:56:48.858Z,2.90
2023-02-03T12:59:41.973Z,2.88
2023-02-03T13:02:32.180Z,2.95
2023-02-03T13:05:28.602Z,3.00
2023-02-03T13:08:45.200Z,2.17
2023-02-03T13:12:08.240Z,2.60
2023-02-03T13:15:03.854Z,3.13
2023-02-03T13:18:09.516Z,2.70
2023-02-03T13:20:55.315Z,2.92
2023-02-03T13:23:44.868Z,3.15
2023-02-03T13:26:30.760Z,2.80
2023-02-03T13:29:36.989Z,3.25
2023-02-03T13:32:46.324Z,2.60
2023-02-03T13:35:47.588Z,3.20
2023-02-03T13:38:51.385Z,3.40
2023-02-03T13:41:53.875Z,3.03
2023-02-03T13:44:41.064Z,2.97
2023-02-03T13:47:29.788Z,3.25
2023-02-03T13:50:27.935Z,3.55
2023-02-03T13:53:26.078Z,3.35
2023-02-03T13:56:25.375Z,5.40
2023-02-03T13:59:14.096Z,4.38
2023-02-03T14:02:21.787Z,3.70
2023-02-03T14:05:29.584Z,3.70
2023-02-03T14:08:32.548Z,4.13
2023-02-03T14:11:36.520Z,5.13
2023-02-03T14:14:22.115Z,3.97
2023-02-03T14:17:33.592Z,4.65
2023-02-03T14:20:28.143Z,4.03
2023-02-03T14:23:33.987Z,3.92
2023-02-03T14:29:32.531Z,4.97
2023-02-03T14:32:17.907Z,5.38
2023-02-03T14:35:19.100Z,3.95
2023-02-03T14:38:10.751Z,4.00
2023-02-03T14:41:06.212Z,4.63
2023-02-03T14:44:07.473Z,4.32
2023-02-03T14:47:11.786Z,4.93
2023-02-03T14:50:18.880Z,3.80
2023-02-03T14:53:31.200Z,4.70
2023-02-03T14:56:59.177Z,4.03
2023-02-03T14:59:58.274Z,4.50
2023-02-03T15:03:11.889Z,4.43
2023-02-03T15:06:05.355Z,4.93
2023-02-03T15:08:53.093Z,4.55
2023-02-03T15:11:45.269Z,4.88
2023-02-03T15:14:34.121Z,4.80
2023-02-03T15:17:26.818Z,5.80
2023-02-03T15:20:38.784Z,5.25
2023-02-03T15:23:29.507Z,4.85
2023-02-03T15:26:26.357Z,5.03
2023-02-03T15:29:28.053Z,5.03
2023-02-03T15:32:19.676Z,4.72
2023-02-03T15:35:09.949Z,4.88
2023-02-03T15:38:01.360Z,4.43
2023-02-03T15:40:54.664Z,4.93
2023-02-03T15:43:47.652Z,4.43
2023-02-03T15:46:45.436Z,4.90
2023-02-03T15:49:44.212Z,5.65
2023-02-03T15:52:31.587Z,4.78
2023-02-03T15:55:26.481Z,4.70
2023-02-03T15:58:19.347Z,4.85
2023-02-03T16:01:18.215Z,4.65
2023-02-03T16:04:14.430Z,4.22
2023-02-03T16:07:00.649Z,4.88
2023-02-03T16:09:46.415Z,4.65
2023-02-03T16:12:33.325Z,5.03
2023-02-03T16:15:28.549Z,4.90
2023-02-03T16:18:18.111Z,5.25
2023-02-03T16:21:05.517Z,4.43
2023-02-03T16:23:55.923Z,5.07
2023-02-03T16:26:41.219Z,3.80
2023-02-03T16:29:48.488Z,5.32
2023-02-03T16:32:52.397Z,5.15
2023-02-03T16:35:59.297Z,4.20
2023-02-03T16:39:07.883Z,4.60
2023-02-03T16:42:12.404Z,4.88
2023-02-03T16:45:17.597Z,4.95
2023-02-03T16:48:22.638Z,5.10
2023-02-03T16:51:15.923Z,5.75
2023-02-03T16:54:01.461Z,5.18
2023-02-03T16:56:48.280Z,5.28
2023-02-03T16:59:33.427Z,5.90
2023-02-03T17:02:19.043Z,4.82
2023-02-03T17:05:04.797Z,4.95
2023-02-03T17:07:51.320Z,5.35
2023-02-03T17:10:38.417Z,6.30
2023-02-03T17:13:25.510Z,5.60
2023-02-03T17:16:23.326Z,5.47
2023-02-03T17:19:12.611Z,5.07
2023-02-03T17:21:57.871Z,5.40
2023-02-03T17:24:43.705Z,6.20
2023-02-03T17:27:29.417Z,6.80
2023-02-03T17:30:17.966Z,5.22
2023-02-03T17:33:12.522Z,6.45
2023-02-03T17:36:06.037Z,6.45
2023-02-03T17:54:19.589Z,5.40
2023-02-03T17:57:05.672Z,5.28
2023-02-03T17:59:55.372Z,5.32
2023-02-03T18:02:42.565Z,5.55
2023-02-03T18:05:29.120Z,6.13
2023-02-03T18:08:16.335Z,7.78
2023-02-03T18:11:03.045Z,6.03
2023-02-03T18:13:50.144Z,5.65
2023-02-03T18:16:36.161Z,5.63
2023-02-03T18:19:21.802Z,6.55
2023-02-03T18:22:07.516Z,5.55
2023-02-03T18:24:53.025Z,6.72
2023-02-03T18:27:38.551Z,6.20
2023-02-03T18:30:23.868Z,5.75
2023-02-03T18:33:12.071Z,5.90
2023-02-03T18:35:58.581Z,6.43
2023-02-03T18:38:45.877Z,6.25
2023-02-03T18:41:31.421Z,6.28
2023-02-03T18:44:16.828Z,5.85
2023-02-03T18:47:07.142Z,6.28
2023-02-03T18:49:52.918Z,5.45
2023-02-03T18:52:38.438Z,5.00
2023-02-03T18:55:27.324Z,5.68
2023-02-03T18:58:16.151Z,6.00
2023-02-03T19:01:01.583Z,5.95
2023-02-03T19:03:46.879Z,7.88
2023-02-03T19:06:34.339Z,6.50
2023-02-03T19:09:25.609Z,5.97
2023-02-03T19:12:12.086Z,6.22
2023-02-03T19:14:57.513Z,6.10
2023-02-03T19:17:43.325Z,6.30
2023-02-03T19:20:29.287Z,7.03
2023-02-03T19:23:23.759Z,6.15
2023-02-03T19:26:10.080Z,5.70
2023-02-03T19:28:58.281Z,6.75
2023-02-03T19:31:43.974Z,5.22
2023-02-03T19:34:30.247Z,6.75
2023-02-03T19:37:15.814Z,6.82
2023-02-03T19:40:02.870Z,7.20
2023-02-03T19:42:49.049Z,7.38
2023-02-03T19:45:40.632Z,6.40
2023-02-03T19:48:26.472Z,6.53
2023-02-03T19:51:28.218Z,6.55
2023-02-03T19:54:15.343Z,5.70
2023-02-03T19:57:01.955Z,7.03
2023-02-03T19:59:51.344Z,6.40
2023-02-03T20:02:38.034Z,6.32
2023-02-03T20:05:23.826Z,6.60
2023-02-03T20:08:12.902Z,7.32
2023-02-03T20:10:58.531Z,5.82
2023-02-03T20:13:47.520Z,5.88
2023-02-03T20:16:35.883Z,5.90
2023-02-03T20:19:21.381Z,6.75
2023-02-03T20:22:12.198Z,8.00
2023-02-03T20:25:01.652Z,6.90
2023-02-03T20:27:49.940Z,6.75
2023-02-03T20:30:35.712Z,6.45
2023-02-03T20:33:21.284Z,8.15
2023-02-03T20:36:07.377Z,6.88
2023-02-03T20:38:55.689Z,7.72
2023-02-03T20:41:41.020Z,7.07
2023-02-03T20:44:26.659Z,7.38
2023-02-03T20:47:14.281Z,7.30
2023-02-03T20:49:59.691Z,7.30
2023-02-03T20:52:46.802Z,7.65
2023-02-03T20:55:32.142Z,5.93
2023-02-03T20:58:19.007Z,7.40
2023-02-03T21:01:13.853Z,7.68
2023-02-03T21:04:17.964Z,7.45
2023-02-03T21:07:14.713Z,6.72
2023-02-03T21:10:00.042Z,7.07
2023-02-03T21:12:45.853Z,7.60
2023-02-03T21:15:34.776Z,7.97
2023-02-03T21:18:25.568Z,7.30
2023-02-03T21:21:25.074Z,8.18
2023-02-03T21:24:51.081Z,7.05
2023-02-03T21:27:36.690Z,7.25
2023-02-03T21:30:32.609Z,6.75
2023-02-03T21:33:34.103Z,7.32
2023-02-03T21:36:24.270Z,8.23
2023-02-03T21:39:33.883Z,7.85
2023-02-03T21:42:43.576Z,7.60
2023-02-03T21:45:41.039Z,8.18
2023-02-03T21:48:48.516Z,8.10
2023-02-03T21:51:38.269Z,8.85
2023-02-03T21:54:26.767Z,7.85
2023-02-03T21:57:20.625Z,8.88
2023-02-03T22:00:37.523Z,8.15
2023-02-03T22:03:25.716Z,8.23
2023-02-03T22:06:45.684Z,8.38
2023-02-03T22:09:31.226Z,8.25
2023-02-03T22:12:16.545Z,7.38
2023-02-03T22:15:02.071Z,7.90
2023-02-03T22:17:49.895Z,8.40
2023-02-03T22:20:35.845Z,8.10
2023-02-03T22:23:21.523Z,10.02
2023-02-03T22:26:08.382Z,9.05
2023-02-03T22:28:57.234Z,9.55
2023-02-03T22:31:42.944Z,9.10
2023-02-03T22:34:28.555Z,8.32
2023-02-03T22:37:13.973Z,9.43
2023-02-03T22:39:59.713Z,8.15
2023-02-03T22:42:45.454Z,8.93
2023-02-03T22:45:30.913Z,8.45
2023-02-03T22:48:16.152Z,9.68
2023-02-03T22:51:01.840Z,7.60
2023-02-03T22:53:47.640Z,7.22
2023-02-03T22:56:32.933Z,6.93
2023-02-03T22:59:18.144Z,7.75
2023-02-03T23:02:03.948Z,8.15
2023-02-03T23:04:50.361Z,7.72
2023-02-03T23:07:37.082Z,7.93
2023-02-03T23:10:31.103Z,9.15
2023-02-03T23:13:17.038Z,7.90
2023-02-03T23:16:04.818Z,7.35
2023-02-03T23:18:52.765Z,6.97
2023-02-03T23:21:38.336Z,7.55
2023-02-03T23:24:23.786Z,7.05
2023-02-03T23:27:12.691Z,7.75
2023-02-03T23:30:00.844Z,7.82
2023-02-03T23:32:46.308Z,6.57
2023-02-03T23:35:47.008Z,8.70
2023-02-03T23:38:36.270Z,7.97
2023-02-03T23:41:21.853Z,7.65
2023-02-03T23:44:07.181Z,7.60
2023-02-03T23:46:54.610Z,7.32
2023-02-03T23:49:40.122Z,7.07
2023-02-03T23:52:25.596Z,7.60
2023-02-03T23:55:19.507Z,6.47
2023-02-03T23:58:05.120Z,7.55
